Addison, Texas
Current Conditions -  °F | °C
As of 10:55 PM on Friday 28 Nov 2014 (Local Time) from KADS Reporting Station
Clear Clear  
Wind Chill: 63°   Ceiling: Unl
Heat Index: 63°   Visibility: 10mi
Dew Point: 49°   Wind: 15mph
Humidity: 60%   Direction: 200°SSW
Pressure: 30"   Gusts: 23mph
Location:  32.95°N, 96.82°W
Report Text: KADS 290455Z AUTO 20013G20KT 10SM CLR 17/10 A3000 RMK AO2 T01740096
Loading
Personal Weather Stations






























Interactive Weather Map New forecast layout! Learn more

10-Day Weather Forecast

Advertisements
Track Severe Weather on mobile